»·PEaware :: N1596E KAVX-L70

N1596E :: KAVX-L70

FLIGHT INFORMATION

Flight Status: Arrived
Operator: Privately registered:
United States
More flights under this callsign
Pilot: Shane P. (16837)
Aircraft: CESSNA 172 SKYHAWK
(C172)
More flights by this aircraft type
Origin: KAVX Catalina
United States
Destination: L70 Agua Dulce
United States
More flights between these airports :: More routes between these airports
Route: +SLI COLISEUM ROUTE NORTHBOUND VNY
File this flight plan on PilotEdge
Remarks: VFR FLIGHT FOLLOWING TO L70; FIRST TIME ON PILOT EDGE; RW PILOT
Altitude:
(Current/Filed)
3,000ft
Speed:
(Current/Filed)
100kts
Departed: 01-Oct-17 02:34 PM
Arrived: 01-Oct-17 03:34 PM
Distance/Time
Traveled:
66nm/1:00
Distance/Time
To Go:
Arrived

Flight Plot

Page will automatically refresh every two minutes.

Flight plan parsing failed; only flown route is shown


Map Options




Map Legend


Flown Route
Filed Route
Departure Airport
Arrival Airport
Navaid (VOR, NDB)
Fix

Horizontal Profiles

Position Reports

Time Latitude Longitude Heading Altitude Ground
Speed
01-Oct-17 14:35 33.407073 -118.411549 52 1605ft 0kts
01-Oct-17 14:36 33.407074 -118.411547 52 1605ft 0kts
01-Oct-17 14:37 33.407106 -118.411496 52 1605ft 1kts
01-Oct-17 14:38 33.405320 -118.415251 234 1607ft 62kts
01-Oct-17 14:39 33.402972 -118.433173 319 2290ft 68kts
01-Oct-17 14:40 33.423376 -118.422966 36 3073ft 99kts
01-Oct-17 14:41 33.441811 -118.392978 66 3042ft 119kts
01-Oct-17 14:42 33.449149 -118.354339 81 3014ft 118kts
01-Oct-17 14:43 33.464868 -118.320994 47 2979ft 111kts
01-Oct-17 14:44 33.485968 -118.292923 41 3000ft 111kts
01-Oct-17 14:45 33.510383 -118.268573 35 3003ft 112kts
01-Oct-17 14:46 33.534628 -118.244295 43 3047ft 111kts
01-Oct-17 14:47 33.557899 -118.216844 46 2924ft 123kts
01-Oct-17 14:48 33.581060 -118.189009 42 2889ft 115kts
01-Oct-17 14:49 33.607190 -118.168733 28 3024ft 119kts
01-Oct-17 14:50 33.636333 -118.147844 29 2990ft 123kts
01-Oct-17 14:51 33.655408 -118.115154 59 3053ft 119kts
01-Oct-17 14:52 33.681183 -118.092794 15 3121ft 118kts
01-Oct-17 14:53 33.711270 -118.081482 16 2947ft 108kts
01-Oct-17 14:54 33.736832 -118.073150 7 3908ft 91kts
01-Oct-17 14:55 33.760991 -118.063487 19 4896ft 91kts
01-Oct-17 14:56 33.781935 -118.052271 21 5833ft 73kts
01-Oct-17 14:57 33.790458 -118.070009 304 6868ft 82kts
01-Oct-17 14:58 33.806435 -118.085166 343 8019ft 71kts
01-Oct-17 14:59 33.827912 -118.095028 321 8519ft 116kts
01-Oct-17 15:00 33.851125 -118.120222 314 8468ft 103kts
01-Oct-17 15:01 33.872288 -118.143488 322 8455ft 99kts
01-Oct-17 15:02 33.895045 -118.162495 327 8473ft 100kts
01-Oct-17 15:03 33.920814 -118.178604 332 8485ft 107kts
01-Oct-17 15:04 33.946920 -118.195333 331 8475ft 98kts
01-Oct-17 15:05 33.972538 -118.216605 319 8525ft 123kts
01-Oct-17 15:06 33.998815 -118.244457 315 8414ft 125kts
01-Oct-17 15:07 34.019532 -118.273238 311 8477ft 106kts
01-Oct-17 15:08 34.038877 -118.304089 310 8481ft 124kts
01-Oct-17 15:09 34.061502 -118.332274 326 8399ft 112kts
01-Oct-17 15:10 34.088012 -118.349346 336 8398ft 109kts
01-Oct-17 15:11 34.113855 -118.365623 328 8473ft 106kts
01-Oct-17 15:12 34.138278 -118.387914 317 8453ft 112kts
01-Oct-17 15:13 34.157692 -118.418231 304 8494ft 117kts
01-Oct-17 15:14 34.178142 -118.449985 319 8464ft 120kts
01-Oct-17 15:15 34.206364 -118.472984 331 8462ft 120kts
01-Oct-17 15:16 34.235557 -118.488834 340 8362ft 116kts
01-Oct-17 15:17 34.267649 -118.488038 2 7874ft 124kts
01-Oct-17 15:18 34.303681 -118.488152 345 6874ft 137kts
01-Oct-17 15:19 34.340036 -118.488074 15 6004ft 132kts
01-Oct-17 15:20 34.372500 -118.470497 41 5559ft 126kts
01-Oct-17 15:21 34.397190 -118.438831 49 5345ft 129kts
01-Oct-17 15:22 34.419521 -118.407142 49 5009ft 121kts
01-Oct-17 15:23 34.439389 -118.373085 57 4591ft 122kts
01-Oct-17 15:24 34.456310 -118.338943 52 4208ft 117kts
01-Oct-17 15:25 34.479563 -118.320496 9 4081ft 101kts
01-Oct-17 15:26 34.506949 -118.312959 358 3584ft 100kts
01-Oct-17 15:27 34.508260 -118.305594 237 2712ft 72kts
01-Oct-17 15:28 34.498595 -118.320976 238 2774ft 63kts
01-Oct-17 15:29 34.505923 -118.322561 48 3417ft 92kts
01-Oct-17 15:30 34.509809 -118.301430 259 2966ft 75kts
01-Oct-17 15:31 34.498778 -118.320192 232 2831ft 48kts
01-Oct-17 15:32 34.505707 -118.319077 42 3124ft 81kts
01-Oct-17 15:33 34.507909 -118.305392 253 2778ft 60kts
01-Oct-17 15:34 34.497321 -118.324140 237 3153ft 63kts
01-Oct-17 15:35 34.507064 -118.327041 41 3508ft 101kts
01-Oct-17 15:36 34.517303 -118.296084 153 3349ft 87kts
01-Oct-17 15:37 34.505541 -118.309889 240 2617ft 72kts
01-Oct-17 15:38 34.500018 -118.319249 17 2605ft 5kts
01-Oct-17 15:39 34.501330 -118.317556 15 2605ft 1kts
01-Oct-17 15:40 34.501311 -118.317766 142 2605ft 0kts
01-Oct-17 15:41 34.501311 -118.317766 142 2605ft 0kts
01-Oct-17 15:42 34.501311 -118.317766 142 2605ft 0kts
01-Oct-17 15:43 34.501311 -118.317766 142 2605ft 0kts
01-Oct-17 15:44 34.501311 -118.317766 142 2605ft 0kts
01-Oct-17 15:45 34.501311 -118.317766 142 2605ft 0kts
01-Oct-17 15:46 34.501310 -118.317765 142 2605ft 0kts
01-Oct-17 15:47 34.501605 -118.317046 52 2605ft 5kts
01-Oct-17 15:48 34.502561 -118.315510 54 2605ft 5kts
01-Oct-17 15:49 34.503813 -118.313501 53 2605ft 10kts
01-Oct-17 15:50 34.506016 -118.309969 53 2605ft 12kts
01-Oct-17 15:51 34.507435 -118.307675 52 2605ft 7kts
01-Oct-17 15:52 34.507379 -118.306951 231 2605ft 0kts

Navigation Log

Ident Type
Flight plan parsing failed, navigation log unavailable